Etusivu
METAR-TAF:

METAR-TAF

Lentoasemat :

Maarianhaminan lentoasema

Maarianhamina, Suomi

Leveyspiiri: 60-07N, Pituuspiiri: 019-54E, korkeus merenpinnasta: 6 m

Tämänhetkinen sää

Tämä raportti tehtiin 23 minuuttia sitten, kello 04.20 UTC
Tuuli 6 kn etelästä/lounaasta, vaihdellen etelän/kaakon ja lännen/lounaan välillä
Lämpötila 19°C
Kosteus 73%
Ilmanpaine 1006 hPa
Näkyvyys 10 km tai enemmän
ei pilviä alle 1500 m:ssä eikä cumulonimbus-pilviä

METAR: EFMA 220420Z AUTO 21006KT 160V240 CAVOK 19/14 Q1006

Aika: 07:43 (04:43 UTC)

Sääennuste

Tämä raportti tehtiin 2 tuntia ja 19 minuuttia sitten, kello 02.24 UTC
Ennuste voimassa 22. päivästä klo 03 UTC - 22. päivään klo 12 UTC
Tuuli 5 kn lounaasta
Näkyvyys 10 km tai enemmän
ei pilviä alle 1500 m:ssä eikä cumulonimbus-pilviä

TAF: EFMA 220224Z 2203/2212 22005KT CAVOK

Säähavainnot ja -ennusteet yli 4000 lentoasemalta (METAR- ja TAF-raportit).

Käytössä olevat sääasemat on merkitty karttaan keltaisilla ja punaisilla pisteillä.

Aseta hiiri pisteen päälle nähdäksesi sääaseman nimen.

Klikkaa sitten nähdäksesi säähavainnot ja -ennusteet.

Kartan vaihtaminen: klikkaa mustalla rastilla varustettuja vihreitä pisteitä, niin voit zoomata sisään; viivalla varustettua vihreää pistettä, niin voit zoomata ulos tai vihreitä nuolia, niin pääset viereisille kartoille.


METAR-TAF: